createdAt,value
2022-12-13T00:01:36.696Z,32.13
2022-12-13T00:04:07.113Z,30.77
2022-12-13T00:06:34.883Z,34.33
2022-12-13T00:09:02.270Z,30.10
2022-12-13T00:11:31.656Z,33.00
2022-12-13T00:14:02.589Z,32.20
2022-12-13T00:16:29.646Z,28.57
2022-12-13T00:18:58.588Z,32.73
2022-12-13T00:21:28.982Z,29.73
2022-12-13T00:23:56.168Z,29.97
2022-12-13T00:26:32.864Z,28.90
2022-12-13T00:29:03.189Z,28.00
2022-12-13T00:34:19.502Z,30.70
2022-12-13T00:36:48.549Z,31.57
2022-12-13T00:39:16.888Z,29.07
2022-12-13T00:41:44.091Z,29.73
2022-12-13T00:44:12.407Z,29.00
2022-12-13T00:46:40.061Z,29.40
2022-12-13T00:49:07.563Z,28.83
2022-12-13T00:51:36.723Z,30.97
2022-12-13T00:54:03.481Z,28.00
2022-12-13T00:56:32.440Z,27.77
2022-12-13T00:58:59.931Z,29.83
2022-12-13T01:01:31.487Z,27.60
2022-12-13T01:04:01.104Z,31.37
2022-12-13T01:06:44.604Z,24.33
2022-12-13T01:09:27.553Z,29.57
2022-12-13T01:12:01.534Z,28.10
2022-12-13T01:14:28.976Z,29.23
2022-12-13T01:16:58.998Z,27.37
2022-12-13T01:19:27.401Z,25.77
2022-12-13T01:21:55.872Z,27.13
2022-12-13T01:24:24.857Z,26.17
2022-12-13T01:26:53.531Z,26.67
2022-12-13T01:29:26.031Z,29.87
2022-12-13T01:31:54.891Z,27.93
2022-12-13T01:34:26.336Z,28.80
2022-12-13T01:36:58.219Z,28.50
2022-12-13T01:39:27.152Z,27.07
2022-12-13T01:41:59.855Z,28.30
2022-12-13T01:44:59.341Z,27.30
2022-12-13T01:47:29.185Z,29.53
2022-12-13T01:49:59.665Z,26.00
2022-12-13T01:52:28.558Z,28.17
2022-12-13T01:55:03.283Z,40.43
2022-12-13T01:57:33.054Z,29.30
2022-12-13T02:00:00.093Z,26.53
2022-12-13T02:02:28.545Z,30.60
2022-12-13T02:05:16.618Z,29.17
2022-12-13T02:07:45.102Z,27.43
2022-12-13T02:10:12.695Z,28.20
2022-12-13T02:12:40.428Z,29.10
2022-12-13T02:15:13.663Z,28.43
2022-12-13T02:18:09.843Z,30.77
2022-12-13T02:21:08.846Z,30.67
2022-12-13T02:24:31.373Z,28.13
2022-12-13T02:27:07.622Z,27.70
2022-12-13T02:29:55.689Z,31.00
2022-12-13T02:32:25.176Z,28.47
2022-12-13T02:35:00.976Z,31.97
2022-12-13T02:37:42.310Z,28.43
2022-12-13T02:40:27.831Z,29.20
2022-12-13T02:43:21.297Z,30.70
2022-12-13T02:45:51.679Z,30.07
2022-12-13T02:48:29.609Z,27.97
2022-12-13T02:51:03.199Z,29.00
2022-12-13T02:53:33.859Z,28.40
2022-12-13T02:56:00.599Z,28.00
2022-12-13T02:58:34.953Z,28.23
2022-12-13T03:01:28.375Z,28.23
2022-12-13T03:04:09.530Z,29.83
2022-12-13T03:07:00.414Z,29.10
2022-12-13T03:09:46.584Z,24.83
2022-12-13T03:12:45.478Z,27.40
2022-12-13T03:15:38.782Z,29.50
2022-12-13T03:18:15.627Z,28.87
2022-12-13T03:20:58.883Z,31.03
2022-12-13T03:23:27.700Z,26.87
2022-12-13T03:26:04.403Z,26.50
2022-12-13T03:28:31.598Z,27.50
2022-12-13T03:30:58.448Z,29.83
2022-12-13T03:33:25.137Z,28.17
2022-12-13T03:35:51.959Z,28.83
2022-12-13T03:38:22.636Z,30.43
2022-12-13T03:40:53.336Z,28.17
2022-12-13T03:43:21.582Z,25.73
2022-12-13T03:45:51.396Z,31.67
2022-12-13T03:48:22.223Z,30.83
2022-12-13T03:50:52.530Z,30.90
2022-12-13T03:53:33.310Z,25.20
2022-12-13T03:56:05.651Z,27.57
2022-12-13T03:58:38.338Z,27.67
2022-12-13T04:01:07.320Z,28.23
2022-12-13T04:03:34.893Z,27.57
2022-12-13T04:06:01.538Z,27.30
2022-12-13T04:08:28.416Z,27.40
2022-12-13T04:13:37.049Z,27.60
2022-12-13T04:16:03.803Z,28.13
2022-12-13T04:18:30.647Z,27.30
2022-12-13T04:20:57.840Z,27.57
2022-12-13T04:23:26.377Z,27.17
2022-12-13T04:25:53.698Z,27.83
2022-12-13T04:28:22.639Z,30.87
2022-12-13T04:30:54.630Z,29.03
2022-12-13T04:33:23.223Z,26.73
2022-12-13T04:35:50.557Z,27.40
2022-12-13T04:38:17.614Z,29.87
2022-12-13T04:40:47.955Z,30.67
2022-12-13T04:43:15.549Z,26.13
2022-12-13T04:45:42.248Z,29.70
2022-12-13T04:48:09.980Z,26.80
2022-12-13T04:50:38.492Z,27.90
2022-12-13T04:53:08.051Z,26.50
2022-12-13T04:55:37.331Z,32.07
2022-12-13T04:58:08.891Z,30.30
2022-12-13T05:00:36.289Z,30.43
2022-12-13T05:03:04.014Z,30.77
2022-12-13T05:05:32.565Z,31.77
2022-12-13T05:07:59.028Z,29.57
2022-12-13T05:10:37.769Z,30.20
2022-12-13T05:13:06.046Z,30.47
2022-12-13T05:15:34.460Z,27.27
2022-12-13T05:18:10.478Z,30.27
2022-12-13T05:20:41.457Z,33.77
2022-12-13T05:23:08.792Z,29.30
2022-12-13T05:25:37.312Z,30.47
2022-12-13T05:28:26.832Z,30.30
2022-12-13T05:30:55.207Z,33.80
2022-12-13T05:33:23.399Z,31.30
2022-12-13T05:35:53.888Z,28.37
2022-12-13T05:38:24.290Z,45.40
2022-12-13T05:40:51.112Z,49.53
2022-12-13T05:43:21.473Z,53.10
2022-12-13T05:45:50.109Z,60.63
2022-12-13T05:48:24.600Z,50.87
2022-12-13T05:51:10.438Z,48.37
2022-12-13T05:53:42.782Z,44.23
2022-12-13T05:56:11.460Z,27.07
2022-12-13T05:58:40.556Z,25.53
2022-12-13T06:01:12.814Z,25.90
2022-12-13T06:03:41.152Z,24.23
2022-12-13T06:06:10.171Z,28.07
2022-12-13T06:08:37.341Z,26.50
2022-12-13T06:11:10.952Z,30.77
2022-12-13T06:13:43.500Z,24.17
2022-12-13T06:16:22.054Z,29.63
2022-12-13T06:19:02.788Z,27.50
2022-12-13T06:21:43.765Z,25.30
2022-12-13T06:24:13.197Z,27.20
2022-12-13T06:26:39.738Z,29.53
2022-12-13T06:29:06.298Z,30.27
2022-12-13T06:31:32.876Z,33.47
2022-12-13T06:34:14.673Z,34.33
2022-12-13T06:36:42.526Z,29.10
2022-12-13T06:39:10.605Z,24.57
2022-12-13T06:41:38.996Z,28.87
2022-12-13T06:44:06.982Z,32.77
2022-12-13T06:46:34.317Z,28.17
2022-12-13T06:49:01.467Z,28.83
2022-12-13T06:51:32.925Z,28.57
2022-12-13T06:54:04.103Z,30.80
2022-12-13T06:56:31.233Z,29.70
2022-12-13T06:59:01.676Z,28.80
2022-12-13T07:01:36.712Z,30.43
2022-12-13T07:04:29.931Z,29.07
2022-12-13T07:06:54.530Z,27.73
2022-12-13T07:09:21.100Z,28.37
2022-12-13T07:11:52.505Z,24.87
2022-12-13T07:14:20.092Z,27.27
2022-12-13T07:16:48.428Z,26.20
2022-12-13T07:19:23.925Z,28.87
2022-12-13T07:21:52.341Z,28.00
2022-12-13T07:24:19.524Z,28.10
2022-12-13T07:26:47.632Z,31.67
2022-12-13T07:29:22.623Z,30.23
2022-12-13T07:31:50.068Z,29.03
2022-12-13T07:34:17.818Z,31.50
2022-12-13T07:36:44.602Z,28.00
2022-12-13T07:39:11.701Z,28.70
2022-12-13T07:41:39.410Z,31.17
2022-12-13T07:44:06.108Z,27.17
2022-12-13T07:46:35.751Z,31.77
2022-12-13T07:49:04.636Z,28.53
2022-12-13T07:51:34.874Z,29.40
2022-12-13T07:54:06.754Z,31.97
2022-12-13T07:56:34.782Z,30.90
2022-12-13T07:59:01.439Z,33.43
2022-12-13T08:01:32.351Z,28.80
2022-12-13T08:03:58.896Z,27.03
2022-12-13T08:06:25.547Z,28.77
2022-12-13T08:08:56.425Z,29.00
2022-12-13T08:11:23.576Z,30.17
2022-12-13T08:13:51.439Z,27.80
2022-12-13T08:16:26.724Z,29.60
2022-12-13T08:19:03.002Z,31.27
2022-12-13T08:21:54.466Z,32.00
2022-12-13T08:24:21.714Z,27.80
2022-12-13T08:26:48.471Z,30.67
2022-12-13T08:29:23.109Z,29.27
2022-12-13T08:32:01.169Z,32.50
2022-12-13T08:34:28.185Z,36.20
2022-12-13T08:37:02.433Z,29.53
2022-12-13T08:39:35.852Z,34.30
2022-12-13T08:42:19.320Z,43.43
2022-12-13T08:44:51.689Z,33.63
2022-12-13T08:47:26.600Z,28.63
2022-12-13T08:49:56.127Z,28.83
2022-12-13T08:52:31.786Z,26.00
2022-12-13T08:54:58.637Z,30.87
2022-12-13T08:57:25.275Z,29.10
2022-12-13T08:59:52.076Z,26.10
2022-12-13T09:02:19.028Z,28.53
2022-12-13T09:04:45.902Z,29.53
2022-12-13T09:07:13.494Z,27.40
2022-12-13T09:09:40.618Z,26.13
2022-12-13T09:12:10.793Z,24.87
2022-12-13T09:14:45.580Z,28.07
2022-12-13T09:17:24.683Z,25.40
2022-12-13T09:19:57.814Z,25.47
2022-12-13T09:22:33.026Z,23.17
2022-12-13T09:25:03.191Z,28.27
2022-12-13T09:27:39.537Z,27.03
2022-12-13T09:30:13.099Z,25.13
2022-12-13T09:32:49.725Z,27.47
2022-12-13T09:35:16.842Z,26.57
2022-12-13T09:37:46.108Z,26.90
2022-12-13T09:40:26.014Z,28.60
2022-12-13T09:43:12.615Z,28.47
2022-12-13T09:45:46.635Z,30.00
2022-12-13T09:48:22.721Z,25.27
2022-12-13T09:50:58.352Z,24.73
2022-12-13T09:53:39.953Z,27.53
2022-12-13T09:56:12.072Z,27.63
2022-12-13T09:58:38.681Z,26.37
2022-12-13T10:01:06.379Z,23.30
2022-12-13T10:03:33.625Z,23.03
2022-12-13T10:06:23.356Z,25.00
2022-12-13T10:08:57.950Z,22.87
2022-12-13T10:11:31.771Z,20.17
2022-12-13T10:14:14.403Z,23.20
2022-12-13T10:16:48.857Z,22.93
2022-12-13T10:19:33.883Z,22.37
2022-12-13T10:22:02.996Z,22.57
2022-12-13T10:24:47.785Z,23.47
2022-12-13T10:27:17.665Z,23.10
2022-12-13T10:30:01.303Z,20.87
2022-12-13T10:32:37.667Z,23.93
2022-12-13T10:35:34.353Z,22.47
2022-12-13T10:38:23.644Z,27.73
2022-12-13T10:40:58.664Z,22.80
2022-12-13T10:43:30.456Z,21.70
2022-12-13T10:46:03.118Z,23.17
2022-12-13T10:48:38.873Z,21.63
2022-12-13T10:51:07.549Z,22.03
2022-12-13T10:53:47.009Z,21.97
2022-12-13T10:56:23.680Z,23.80
2022-12-13T10:59:16.659Z,20.43
2022-12-13T11:01:44.495Z,16.50
2022-12-13T11:04:32.587Z,20.33
2022-12-13T11:07:02.155Z,19.97
2022-12-13T11:09:39.167Z,19.23
2022-12-13T11:12:16.707Z,18.60
2022-12-13T11:14:56.416Z,19.80
2022-12-13T11:17:26.625Z,16.00
2022-12-13T11:19:57.556Z,14.63
2022-12-13T11:22:31.248Z,16.07
2022-12-13T11:25:06.464Z,14.33
2022-12-13T11:28:37.336Z,19.10
2022-12-13T11:31:34.901Z,76.07
2022-12-13T11:34:23.588Z,19.80
2022-12-13T11:36:58.451Z,18.03
2022-12-13T11:39:35.159Z,17.13
2022-12-13T11:42:22.519Z,15.30
2022-12-13T11:45:23.531Z,17.40
2022-12-13T11:48:03.490Z,16.23
2022-12-13T11:50:37.282Z,15.33
2022-12-13T11:53:19.188Z,13.70
2022-12-13T11:56:04.721Z,14.00
2022-12-13T11:59:03.638Z,16.50
2022-12-13T12:01:48.039Z,14.50
2022-12-13T12:04:41.878Z,12.50
2022-12-13T12:07:34.921Z,16.43
2022-12-13T12:10:13.821Z,14.27
2022-12-13T12:12:46.452Z,13.23
2022-12-13T12:15:27.681Z,14.93
2022-12-13T12:17:56.380Z,14.20
2022-12-13T12:20:47.666Z,11.53
2022-12-13T12:23:46.401Z,14.20
2022-12-13T12:26:17.803Z,13.80
2022-12-13T12:29:22.001Z,11.47
2022-12-13T12:32:03.855Z,13.67
2022-12-13T12:34:45.745Z,15.33
2022-12-13T12:37:40.494Z,49.60
2022-12-13T12:41:15.074Z,43.57
2022-12-13T12:43:34.692Z,14.00
2022-12-13T12:47:09.271Z,15.73
2022-12-13T12:49:58.554Z,14.27
2022-12-13T12:52:42.515Z,13.07
2022-12-13T12:55:20.102Z,13.63
2022-12-13T12:58:02.399Z,11.90
2022-12-13T13:00:36.972Z,13.53
2022-12-13T13:03:23.500Z,15.87
2022-12-13T13:06:02.485Z,12.53
2022-12-13T13:08:53.210Z,14.20
2022-12-13T13:11:24.363Z,15.23
2022-12-13T13:14:01.611Z,13.27
2022-12-13T13:16:40.675Z,18.27
2022-12-13T13:19:25.800Z,16.80
2022-12-13T13:21:55.287Z,14.73
2022-12-13T13:24:32.826Z,14.73
2022-12-13T13:27:19.375Z,17.00
2022-12-13T13:29:46.432Z,18.43
2022-12-13T13:32:29.353Z,15.87
2022-12-13T13:35:32.160Z,17.20
2022-12-13T13:38:00.892Z,16.40
2022-12-13T13:40:30.065Z,17.40
2022-12-13T13:43:04.490Z,15.77
2022-12-13T13:45:50.522Z,16.83
2022-12-13T13:49:04.667Z,16.90
2022-12-13T13:52:16.720Z,17.83
2022-12-13T13:55:07.355Z,16.87
2022-12-13T13:58:12.482Z,14.30
2022-12-13T14:01:02.000Z,15.10
2022-12-13T14:04:10.391Z,16.37
2022-12-13T14:07:01.043Z,16.90
2022-12-13T14:10:14.319Z,17.43
2022-12-13T14:13:03.748Z,17.47
2022-12-13T14:16:08.023Z,17.20
2022-12-13T14:19:16.798Z,17.63
2022-12-13T14:22:10.012Z,17.13
2022-12-13T14:25:06.030Z,18.77
2022-12-13T14:27:50.597Z,19.87
2022-12-13T14:30:28.272Z,20.87
2022-12-13T14:32:57.266Z,18.00
2022-12-13T14:35:30.255Z,18.07
2022-12-13T14:38:02.612Z,21.73
2022-12-13T14:40:32.674Z,19.60
2022-12-13T14:43:00.159Z,22.70
2022-12-13T14:45:29.591Z,30.87
2022-12-13T14:48:03.378Z,23.70
2022-12-13T14:50:34.959Z,23.73
2022-12-13T14:53:04.995Z,23.93
2022-12-13T14:55:37.654Z,26.57
2022-12-13T14:58:17.618Z,24.57
2022-12-13T15:00:47.753Z,24.13
2022-12-13T15:03:24.567Z,23.60
2022-12-13T15:06:00.486Z,24.37
2022-12-13T15:08:27.584Z,22.40
2022-12-13T15:10:57.436Z,25.90
2022-12-13T15:13:29.676Z,20.80
2022-12-13T15:16:00.577Z,22.67
2022-12-13T15:18:30.174Z,27.60
2022-12-13T15:21:01.740Z,22.93
2022-12-13T15:23:48.773Z,25.60
2022-12-13T15:26:29.176Z,29.00
2022-12-13T15:28:59.506Z,23.10
2022-12-13T15:31:27.965Z,24.87
2022-12-13T15:34:01.235Z,23.13
2022-12-13T15:36:32.100Z,23.63
2022-12-13T15:39:02.478Z,23.87
2022-12-13T15:41:42.516Z,22.13
2022-12-13T15:44:22.636Z,23.27
2022-12-13T15:46:51.551Z,25.03
2022-12-13T15:49:30.692Z,25.90
2022-12-13T15:52:01.938Z,26.37
2022-12-13T15:54:28.886Z,26.13
2022-12-13T15:57:21.617Z,24.70
2022-12-13T15:59:48.377Z,25.47
2022-12-13T16:02:25.497Z,29.10
2022-12-13T16:04:52.421Z,26.87
2022-12-13T16:07:27.512Z,26.70
2022-12-13T16:09:57.415Z,24.30
2022-12-13T16:12:33.742Z,24.03
2022-12-13T16:15:20.378Z,25.47
2022-12-13T16:18:32.561Z,23.17
2022-12-13T16:20:59.501Z,21.27
2022-12-13T16:23:27.654Z,22.80
2022-12-13T16:25:55.373Z,21.10
2022-12-13T16:28:25.936Z,23.30
2022-12-13T16:30:54.538Z,25.17
2022-12-13T16:33:27.384Z,20.30
2022-12-13T16:35:55.417Z,23.60
2022-12-13T16:38:26.572Z,25.33
2022-12-13T16:40:56.642Z,23.77
2022-12-13T16:43:32.789Z,22.80
2022-12-13T16:47:15.463Z,25.53
2022-12-13T16:48:50.913Z,24.53
2022-12-13T16:51:18.219Z,22.17
2022-12-13T16:53:44.962Z,25.67
2022-12-13T16:56:14.833Z,26.17
2022-12-13T16:58:46.210Z,25.67
2022-12-13T17:01:22.962Z,24.57
2022-12-13T17:03:49.501Z,23.97
2022-12-13T17:06:22.319Z,22.70
2022-12-13T17:08:50.486Z,24.87
2022-12-13T17:11:18.545Z,23.57
2022-12-13T17:13:48.181Z,87.57
2022-12-13T17:16:15.007Z,97.27
2022-12-13T17:18:42.541Z,65.60
2022-12-13T17:21:10.744Z,71.50
2022-12-13T17:23:37.620Z,27.30
2022-12-13T17:26:07.255Z,25.23
2022-12-13T17:28:35.082Z,24.63
2022-12-13T17:31:07.205Z,24.53
2022-12-13T17:33:34.646Z,19.67
2022-12-13T17:36:03.744Z,24.47
2022-12-13T17:38:30.709Z,22.73
2022-12-13T17:41:00.672Z,23.50
2022-12-13T17:43:34.294Z,36.33
2022-12-13T17:46:13.513Z,25.40
2022-12-13T17:48:44.677Z,23.70
2022-12-13T17:51:14.604Z,30.00
2022-12-13T17:53:43.433Z,22.97
2022-12-13T17:56:15.183Z,25.53
2022-12-13T17:58:42.549Z,22.33
2022-12-13T18:01:24.169Z,23.43
2022-12-13T18:03:55.858Z,22.47
2022-12-13T18:06:24.142Z,25.53
2022-12-13T18:08:50.771Z,23.03
2022-12-13T18:11:35.366Z,19.23
2022-12-13T18:14:03.431Z,20.80
2022-12-13T18:16:36.210Z,21.27
2022-12-13T18:19:10.885Z,19.27
2022-12-13T18:21:38.091Z,19.93
2022-12-13T18:24:06.699Z,22.10
2022-12-13T18:26:35.327Z,20.50
2022-12-13T18:29:04.364Z,20.83
2022-12-13T18:31:31.405Z,21.63
2022-12-13T18:33:58.463Z,22.30
2022-12-13T18:36:25.712Z,20.03
2022-12-13T18:38:53.052Z,19.93
2022-12-13T18:41:23.567Z,17.40
2022-12-13T18:43:56.045Z,18.43
2022-12-13T18:46:26.959Z,18.77
2022-12-13T18:48:53.705Z,19.23
2022-12-13T18:51:21.275Z,21.03
2022-12-13T18:53:47.907Z,19.73
2022-12-13T18:56:19.230Z,23.63
2022-12-13T18:58:50.235Z,17.83
2022-12-13T19:01:18.851Z,19.77
2022-12-13T19:03:49.496Z,18.23
2022-12-13T19:06:27.184Z,28.40
2022-12-13T19:09:00.241Z,18.93
2022-12-13T19:11:29.394Z,18.73
2022-12-13T19:13:56.716Z,24.93
2022-12-13T19:16:27.947Z,17.50
2022-12-13T19:18:54.856Z,20.40
2022-12-13T19:21:25.331Z,19.27
2022-12-13T19:23:57.444Z,17.03
2022-12-13T19:26:26.182Z,18.97
2022-12-13T19:28:54.252Z,18.77
2022-12-13T19:31:24.273Z,18.90
2022-12-13T19:33:56.843Z,14.43
2022-12-13T19:36:23.684Z,17.53
2022-12-13T19:38:51.201Z,17.53
2022-12-13T19:41:18.923Z,17.07
2022-12-13T19:43:52.310Z,17.73
2022-12-13T19:46:20.334Z,17.10
2022-12-13T19:48:48.306Z,16.63
2022-12-13T19:51:14.921Z,15.87
2022-12-13T19:53:44.237Z,17.03
2022-12-13T19:56:13.712Z,17.47
2022-12-13T19:58:41.515Z,16.47
2022-12-13T20:01:09.689Z,17.77
2022-12-13T20:03:39.328Z,19.00
2022-12-13T20:06:08.538Z,16.20
2022-12-13T20:08:37.856Z,14.47
2022-12-13T20:11:10.654Z,16.77
2022-12-13T20:13:37.813Z,17.37
2022-12-13T20:16:06.976Z,15.37
2022-12-13T20:18:36.251Z,13.23
2022-12-13T20:21:12.071Z,14.03
2022-12-13T20:23:41.448Z,16.20
2022-12-13T20:26:18.228Z,16.33
2022-12-13T20:28:45.636Z,17.87
2022-12-13T20:31:15.696Z,18.20
2022-12-13T20:33:43.486Z,17.40
2022-12-13T20:36:25.865Z,17.33
2022-12-13T20:38:56.537Z,17.10
2022-12-13T20:41:25.160Z,15.97
2022-12-13T20:43:55.809Z,19.03
2022-12-13T20:46:22.896Z,18.67
2022-12-13T20:48:51.477Z,15.93
2022-12-13T20:51:24.173Z,17.83
2022-12-13T20:53:53.756Z,19.83
2022-12-13T20:56:34.518Z,14.97
2022-12-13T20:59:04.602Z,17.53
2022-12-13T21:01:35.289Z,16.00
2022-12-13T21:04:06.374Z,16.00
2022-12-13T21:06:36.379Z,16.37
2022-12-13T21:09:07.025Z,17.40
2022-12-13T21:11:40.320Z,17.23
2022-12-13T21:14:23.109Z,15.93
2022-12-13T21:17:03.356Z,20.70
2022-12-13T21:19:39.147Z,16.60
2022-12-13T21:22:10.455Z,15.17
2022-12-13T21:24:37.357Z,15.63
2022-12-13T21:27:05.221Z,15.93
2022-12-13T21:29:32.972Z,15.13
2022-12-13T21:32:02.505Z,16.50
2022-12-13T21:34:29.291Z,13.80
2022-12-13T21:36:55.878Z,16.30
2022-12-13T21:39:29.452Z,14.87
2022-12-13T21:41:56.480Z,16.17
2022-12-13T21:44:24.773Z,15.33
2022-12-13T21:49:41.728Z,14.73
2022-12-13T21:52:08.921Z,15.63
2022-12-13T21:54:35.635Z,15.80
2022-12-13T21:57:21.838Z,15.83
2022-12-13T21:59:49.615Z,16.50
2022-12-13T22:02:19.599Z,15.17
2022-12-13T22:05:00.089Z,15.17
2022-12-13T22:07:34.634Z,14.37
2022-12-13T22:10:04.887Z,15.63
2022-12-13T22:12:41.290Z,16.00
2022-12-13T22:15:10.611Z,15.57
2022-12-13T22:17:39.676Z,16.47
2022-12-13T22:20:11.625Z,14.30
2022-12-13T22:22:39.709Z,13.83
2022-12-13T22:25:07.442Z,15.30
2022-12-13T22:27:34.536Z,15.07
2022-12-13T22:30:04.305Z,15.10
2022-12-13T22:32:32.512Z,17.93
2022-12-13T22:34:59.282Z,15.07
2022-12-13T22:37:26.819Z,14.97
2022-12-13T22:39:53.405Z,13.73
2022-12-13T22:42:23.326Z,16.10
2022-12-13T22:44:49.857Z,15.70
2022-12-13T22:47:16.573Z,13.77
2022-12-13T22:49:43.642Z,14.60
2022-12-13T22:52:10.305Z,16.37
2022-12-13T22:54:36.845Z,14.57
2022-12-13T22:57:03.994Z,14.77
2022-12-13T22:59:38.078Z,14.03
2022-12-13T23:02:13.668Z,13.03
2022-12-13T23:04:40.696Z,16.47
2022-12-13T23:07:09.871Z,15.67
2022-12-13T23:09:42.217Z,12.93
2022-12-13T23:12:33.527Z,13.60
2022-12-13T23:15:02.603Z,13.57
2022-12-13T23:17:29.887Z,12.63
2022-12-13T23:19:58.653Z,13.23
2022-12-13T23:22:30.373Z,12.83
2022-12-13T23:24:57.499Z,13.20
2022-12-13T23:27:27.482Z,11.30
2022-12-13T23:29:56.248Z,12.40
2022-12-13T23:32:25.925Z,14.63
2022-12-13T23:34:57.081Z,11.17
2022-12-13T23:37:25.554Z,11.80
2022-12-13T23:39:54.684Z,12.30
2022-12-13T23:42:21.737Z,12.13
2022-12-13T23:44:51.677Z,10.57
2022-12-13T23:47:18.505Z,10.87
2022-12-13T23:49:45.157Z,11.90
2022-12-13T23:52:14.871Z,13.00
2022-12-13T23:54:42.627Z,13.43
2022-12-13T23:57:12.165Z,14.90
2022-12-13T23:59:38.924Z,12.37
